createdAt,value
2018-06-28T00:02:15.769Z,1.83
2018-06-28T00:04:43.641Z,1.73
2018-06-28T00:07:11.635Z,1.83
2018-06-28T00:09:39.539Z,2.20
2018-06-28T00:12:07.404Z,1.80
2018-06-28T00:14:35.251Z,2.00
2018-06-28T00:17:03.164Z,1.80
2018-06-28T00:19:30.984Z,1.87
2018-06-28T00:21:58.868Z,1.73
2018-06-28T00:24:26.832Z,1.70
2018-06-28T00:26:54.672Z,1.90
2018-06-28T00:29:22.642Z,1.83
2018-06-28T00:31:50.833Z,1.87
2018-06-28T00:34:18.730Z,1.80
2018-06-28T00:36:46.620Z,1.83
2018-06-28T00:39:14.540Z,1.83
2018-06-28T00:41:42.373Z,1.60
2018-06-28T00:44:10.640Z,2.13
2018-06-28T00:46:38.742Z,1.70
2018-06-28T00:49:06.869Z,1.60
2018-06-28T00:51:34.777Z,2.40
2018-06-28T00:54:02.792Z,1.97
2018-06-28T00:56:30.588Z,1.70
2018-06-28T00:58:58.500Z,2.27
2018-06-28T01:01:26.463Z,2.20
2018-06-28T01:03:54.439Z,2.10
2018-06-28T01:06:22.389Z,2.40
2018-06-28T01:08:50.379Z,1.83
2018-06-28T01:11:18.253Z,1.97
2018-06-28T01:13:46.231Z,2.23
2018-06-28T01:16:14.020Z,2.10
2018-06-28T01:18:41.921Z,2.30
2018-06-28T01:21:09.797Z,1.87
2018-06-28T01:23:37.704Z,2.30
2018-06-28T01:26:05.584Z,2.23
2018-06-28T01:28:33.455Z,2.37
2018-06-28T01:31:01.280Z,2.00
2018-06-28T01:33:29.204Z,2.00
2018-06-28T01:35:56.960Z,2.13
2018-06-28T01:38:24.788Z,2.30
2018-06-28T01:40:52.601Z,2.23
2018-06-28T01:43:36.863Z,2.10
2018-06-28T01:46:04.795Z,3.23
2018-06-28T01:48:32.636Z,2.63
2018-06-28T01:51:00.522Z,2.80
2018-06-28T01:53:28.662Z,2.60
2018-06-28T01:55:56.737Z,2.60
2018-06-28T01:58:24.576Z,3.40
2018-06-28T02:00:52.514Z,2.93
2018-06-28T02:03:20.440Z,2.40
2018-06-28T02:05:49.618Z,2.23
2018-06-28T02:08:17.918Z,2.20
2018-06-28T02:10:45.868Z,2.60
2018-06-28T02:13:13.686Z,2.20
2018-06-28T02:15:41.628Z,2.10
2018-06-28T02:18:09.742Z,2.20
2018-06-28T02:20:38.032Z,2.30
2018-06-28T02:23:06.029Z,2.37
2018-06-28T02:25:33.974Z,2.50
2018-06-28T02:28:01.833Z,2.83
2018-06-28T02:30:29.801Z,2.10
2018-06-28T02:32:57.728Z,2.90
2018-06-28T02:35:25.865Z,2.30
2018-06-28T02:37:53.804Z,2.40
2018-06-28T02:40:21.628Z,2.77
2018-06-28T02:42:49.522Z,2.17
2018-06-28T02:45:17.445Z,2.03
2018-06-28T02:47:45.452Z,2.70
2018-06-28T02:50:14.124Z,2.37
2018-06-28T02:52:41.976Z,8.73
2018-06-28T02:55:09.836Z,4.30
2018-06-28T02:57:37.753Z,2.30
2018-06-28T03:00:06.116Z,2.50
2018-06-28T03:02:34.032Z,2.27
2018-06-28T03:05:01.879Z,2.77
2018-06-28T03:07:29.727Z,2.40
2018-06-28T03:09:57.584Z,2.50
2018-06-28T03:12:25.644Z,2.80
2018-06-28T03:14:53.940Z,3.20
2018-06-28T03:17:21.784Z,2.67
2018-06-28T03:19:49.666Z,2.70
2018-06-28T03:22:17.524Z,2.37
2018-06-28T03:24:45.360Z,2.20
2018-06-28T03:27:13.215Z,2.37
2018-06-28T03:29:41.324Z,2.50
2018-06-28T03:32:09.178Z,2.90
2018-06-28T03:34:37.128Z,2.83
2018-06-28T03:37:05.253Z,2.30
2018-06-28T03:39:33.134Z,2.20
2018-06-28T03:42:01.070Z,2.60
2018-06-28T03:44:29.036Z,2.53
2018-06-28T03:46:57.044Z,2.87
2018-06-28T03:49:24.885Z,2.93
2018-06-28T03:51:53.535Z,2.70
2018-06-28T03:54:21.851Z,2.63
2018-06-28T03:56:49.685Z,2.90
2018-06-28T03:59:17.584Z,2.90
2018-06-28T04:01:45.434Z,2.90
2018-06-28T04:04:13.736Z,3.17
2018-06-28T04:06:41.889Z,2.90
2018-06-28T04:09:10.799Z,3.00
2018-06-28T04:11:39.060Z,2.93
2018-06-28T04:14:07.097Z,2.50
2018-06-28T04:16:35.395Z,2.80
2018-06-28T04:19:03.284Z,3.10
2018-06-28T04:21:31.280Z,2.63
2018-06-28T04:23:59.226Z,2.77
2018-06-28T04:26:27.030Z,2.77
2018-06-28T04:28:54.916Z,2.90
2018-06-28T04:31:22.817Z,2.40
2018-06-28T04:33:50.693Z,2.83
2018-06-28T04:36:18.571Z,2.50
2018-06-28T04:38:46.395Z,2.80
2018-06-28T04:41:14.384Z,2.50
2018-06-28T04:43:42.220Z,2.97
2018-06-28T04:46:10.095Z,2.60
2018-06-28T04:48:37.996Z,2.60
2018-06-28T04:51:06.065Z,2.70
2018-06-28T04:53:33.964Z,2.90
2018-06-28T04:56:01.924Z,2.77
2018-06-28T04:58:30.017Z,3.40
2018-06-28T05:00:57.912Z,2.80
2018-06-28T05:03:25.744Z,3.30
2018-06-28T05:05:53.628Z,2.87
2018-06-28T05:08:21.516Z,3.07
2018-06-28T05:10:49.417Z,2.77
2018-06-28T05:13:17.639Z,2.83
2018-06-28T05:15:45.523Z,2.70
2018-06-28T05:18:13.393Z,2.50
2018-06-28T05:20:41.533Z,3.47
2018-06-28T05:23:09.633Z,3.07
2018-06-28T05:25:37.485Z,2.93
2018-06-28T05:28:05.648Z,3.47
2018-06-28T05:30:33.524Z,2.80
2018-06-28T05:33:01.605Z,3.17
2018-06-28T05:35:29.661Z,2.63
2018-06-28T05:37:57.509Z,2.90
2018-06-28T05:40:25.399Z,2.67
2018-06-28T05:42:53.234Z,3.20
2018-06-28T05:45:21.033Z,3.57
2018-06-28T05:47:48.912Z,3.17
2018-06-28T05:50:16.957Z,3.30
2018-06-28T05:52:44.829Z,3.90
2018-06-28T05:55:12.642Z,3.50
2018-06-28T05:57:40.493Z,3.40
2018-06-28T06:00:08.656Z,2.83
2018-06-28T06:02:36.628Z,3.53
2018-06-28T06:05:04.824Z,3.30
2018-06-28T06:07:32.960Z,2.90
2018-06-28T06:10:01.472Z,2.57
2018-06-28T06:12:29.445Z,2.67
2018-06-28T06:14:57.346Z,2.60
2018-06-28T06:17:25.218Z,2.17
2018-06-28T06:19:53.072Z,2.73
2018-06-28T06:22:21.210Z,2.73
2018-06-28T06:24:49.092Z,2.30
2018-06-28T06:27:17.255Z,2.70
2018-06-28T06:29:45.165Z,2.77
2018-06-28T06:32:13.616Z,2.70
2018-06-28T06:34:41.404Z,2.47
2018-06-28T06:37:09.331Z,2.50
2018-06-28T06:39:37.528Z,2.77
2018-06-28T06:42:05.712Z,2.87
2018-06-28T06:44:33.681Z,3.10
2018-06-28T06:47:01.588Z,3.27
2018-06-28T06:49:30.519Z,2.40
2018-06-28T06:51:58.372Z,2.00
2018-06-28T06:54:26.249Z,2.37
2018-06-28T06:56:54.160Z,2.40
2018-06-28T06:59:21.966Z,2.43
2018-06-28T07:01:49.879Z,2.67
2018-06-28T07:04:17.782Z,2.13
2018-06-28T07:06:45.791Z,2.10
2018-06-28T07:09:13.698Z,2.47
2018-06-28T07:11:41.616Z,2.40
2018-06-28T07:14:10.040Z,2.60
2018-06-28T07:16:37.884Z,2.70
2018-06-28T07:19:05.865Z,2.63
2018-06-28T07:21:33.656Z,2.13
2018-06-28T07:24:02.024Z,2.23
2018-06-28T07:26:29.954Z,2.90
2018-06-28T07:28:57.833Z,2.60
2018-06-28T07:31:25.720Z,2.40
2018-06-28T07:33:54.023Z,2.57
2018-06-28T07:36:21.856Z,2.80
2018-06-28T07:38:49.741Z,2.93
2018-06-28T07:41:17.641Z,2.43
2018-06-28T07:43:45.528Z,3.13
2018-06-28T07:46:13.649Z,2.40
2018-06-28T07:48:41.513Z,2.90
2018-06-28T07:51:09.408Z,2.40
2018-06-28T07:53:37.599Z,2.87
2018-06-28T07:56:05.691Z,2.43
2018-06-28T07:58:33.509Z,2.30
2018-06-28T08:01:01.318Z,2.60
2018-06-28T08:03:29.244Z,2.63
2018-06-28T08:05:57.154Z,2.27
2018-06-28T08:08:25.016Z,2.77
2018-06-28T08:10:53.685Z,2.33
2018-06-28T08:13:21.601Z,2.53
2018-06-28T08:15:49.461Z,2.40
2018-06-28T08:18:17.581Z,3.10
2018-06-28T08:20:45.452Z,2.37
2018-06-28T08:23:13.326Z,3.47
2018-06-28T08:25:41.177Z,3.10
2018-06-28T08:28:08.961Z,3.07
2018-06-28T08:30:36.776Z,3.30
2018-06-28T08:33:04.718Z,3.23
2018-06-28T08:35:32.616Z,2.97
2018-06-28T08:38:00.416Z,3.17
2018-06-28T08:40:28.316Z,2.67
2018-06-28T08:42:56.192Z,3.07
2018-06-28T08:45:24.040Z,2.47
2018-06-28T08:47:51.908Z,2.80
2018-06-28T08:50:19.924Z,3.20
2018-06-28T08:52:47.768Z,2.90
2018-06-28T08:55:15.665Z,2.90
2018-06-28T08:57:43.500Z,3.07
2018-06-28T09:00:11.380Z,2.20
2018-06-28T09:02:39.180Z,2.73
2018-06-28T09:05:07.252Z,2.30
2018-06-28T09:07:35.121Z,2.50
2018-06-28T09:10:03.107Z,2.80
2018-06-28T09:12:30.952Z,2.83
2018-06-28T09:14:58.880Z,2.23
2018-06-28T09:17:27.127Z,2.27
2018-06-28T09:19:55.008Z,2.67
2018-06-28T09:22:22.859Z,2.80
2018-06-28T09:24:50.747Z,2.33
2018-06-28T09:27:18.589Z,2.53
2018-06-28T09:29:46.444Z,2.47
2018-06-28T09:32:14.258Z,2.33
2018-06-28T09:34:42.137Z,2.73
2018-06-28T09:37:09.989Z,2.67
2018-06-28T09:39:37.900Z,2.40
2018-06-28T09:42:06.389Z,2.60
2018-06-28T09:44:34.375Z,2.20
2018-06-28T09:47:02.361Z,2.30
2018-06-28T09:49:30.320Z,2.60
2018-06-28T09:51:58.225Z,2.40
2018-06-28T09:54:26.587Z,2.50
2018-06-28T09:56:54.373Z,2.70
2018-06-28T09:59:22.164Z,4.20
2018-06-28T10:01:51.072Z,3.13
2018-06-28T10:04:19.018Z,2.40
2018-06-28T10:06:46.933Z,2.50
2018-06-28T10:09:14.681Z,2.10
2018-06-28T10:11:42.532Z,2.87
2018-06-28T10:14:10.740Z,2.80
2018-06-28T10:16:38.610Z,3.13
2018-06-28T10:19:06.520Z,3.47
2018-06-28T10:21:34.536Z,3.10
2018-06-28T10:24:02.496Z,2.40
2018-06-28T10:26:30.349Z,2.77
2018-06-28T10:28:58.260Z,2.70
2018-06-28T10:31:26.238Z,2.87
2018-06-28T10:33:54.136Z,2.20
2018-06-28T10:36:22.045Z,2.80
2018-06-28T10:38:49.948Z,2.47
2018-06-28T10:41:17.943Z,2.83
2018-06-28T10:43:45.822Z,2.70
2018-06-28T10:46:13.822Z,2.90
2018-06-28T10:48:42.048Z,3.17
2018-06-28T10:51:09.980Z,2.93
2018-06-28T10:53:37.792Z,2.80
2018-06-28T10:56:05.767Z,3.10
2018-06-28T10:58:34.045Z,2.97
2018-06-28T11:01:02.015Z,2.80
2018-06-28T11:03:29.911Z,3.03
2018-06-28T11:05:57.789Z,2.60
2018-06-28T11:08:25.685Z,2.93
2018-06-28T11:10:53.585Z,2.53
2018-06-28T11:13:21.432Z,2.83
2018-06-28T11:15:49.361Z,3.00
2018-06-28T11:18:17.025Z,3.20
2018-06-28T11:20:44.859Z,2.80
2018-06-28T11:23:12.637Z,3.00
2018-06-28T11:25:40.487Z,2.50
2018-06-28T11:28:08.348Z,2.73
2018-06-28T11:30:36.248Z,2.90
2018-06-28T11:33:04.149Z,2.97
2018-06-28T11:35:31.956Z,2.47
2018-06-28T11:37:59.746Z,2.60
2018-06-28T11:40:27.516Z,2.87
2018-06-28T11:42:55.407Z,2.47
2018-06-28T11:45:23.197Z,2.80
2018-06-28T11:47:50.999Z,2.87
2018-06-28T11:50:18.812Z,2.63
2018-06-28T11:52:46.641Z,3.03
2018-06-28T11:55:14.504Z,2.97
2018-06-28T11:57:42.325Z,3.00
2018-06-28T12:00:10.188Z,2.60
2018-06-28T12:02:38.035Z,2.33
2018-06-28T12:05:05.950Z,3.47
2018-06-28T12:07:33.808Z,3.90
2018-06-28T12:10:01.664Z,2.90
2018-06-28T12:12:29.568Z,2.87
2018-06-28T12:14:57.423Z,3.03
2018-06-28T12:17:25.319Z,2.93
2018-06-28T12:19:53.155Z,2.70
2018-06-28T12:22:21.021Z,3.10
2018-06-28T12:24:48.844Z,3.10
2018-06-28T12:27:16.827Z,3.53
2018-06-28T12:29:44.629Z,2.80
2018-06-28T12:32:12.449Z,2.80
2018-06-28T12:34:40.222Z,3.10
2018-06-28T12:37:08.116Z,2.80
2018-06-28T12:39:35.996Z,2.80
2018-06-28T12:42:04.110Z,2.70
2018-06-28T12:44:31.982Z,3.07
2018-06-28T12:47:40.683Z,2.90
2018-06-28T12:50:08.628Z,2.83
2018-06-28T12:52:44.003Z,3.17
2018-06-28T12:55:13.276Z,3.20
2018-06-28T12:57:41.272Z,2.70
2018-06-28T13:00:09.111Z,2.97
2018-06-28T13:02:36.876Z,3.30
2018-06-28T13:05:05.051Z,2.93
2018-06-28T13:07:32.931Z,2.63
2018-06-28T13:10:00.688Z,3.47
2018-06-28T13:12:28.544Z,2.90
2018-06-28T13:14:56.408Z,2.70
2018-06-28T13:17:24.348Z,2.73
2018-06-28T13:19:52.148Z,3.30
2018-06-28T13:22:20.036Z,3.03
2018-06-28T13:24:47.920Z,2.90
2018-06-28T13:27:15.719Z,3.00
2018-06-28T13:29:43.509Z,2.67
2018-06-28T13:32:11.300Z,2.33
2018-06-28T13:34:39.145Z,2.97
2018-06-28T13:37:07.063Z,2.93
2018-06-28T13:39:34.888Z,2.93
2018-06-28T13:42:02.883Z,3.00
2018-06-28T13:44:30.675Z,2.80
2018-06-28T13:46:58.524Z,2.43
2018-06-28T13:49:26.321Z,2.53
2018-06-28T13:51:54.156Z,2.50
2018-06-28T13:54:22.039Z,2.67
2018-06-28T13:56:49.949Z,2.97
2018-06-28T13:59:17.812Z,2.97
2018-06-28T14:01:45.693Z,4.13
2018-06-28T14:04:13.824Z,3.40
2018-06-28T14:06:41.737Z,3.03
2018-06-28T14:09:11.289Z,2.73
2018-06-28T14:11:39.259Z,2.43
2018-06-28T14:14:07.080Z,4.30
2018-06-28T14:16:35.038Z,3.57
2018-06-28T14:19:02.934Z,2.67
2018-06-28T14:21:30.863Z,2.90
2018-06-28T14:23:58.717Z,3.10
2018-06-28T14:26:26.561Z,2.40
2018-06-28T14:28:54.470Z,2.73
2018-06-28T14:31:22.361Z,2.80
2018-06-28T14:33:50.165Z,2.80
2018-06-28T14:36:18.078Z,2.63
2018-06-28T14:38:45.951Z,3.27
2018-06-28T14:41:13.840Z,2.80
2018-06-28T14:43:41.680Z,2.57
2018-06-28T14:46:09.488Z,2.60
2018-06-28T14:48:37.667Z,2.87
2018-06-28T14:51:05.988Z,2.83
2018-06-28T14:53:33.967Z,3.20
2018-06-28T14:56:01.854Z,3.00
2018-06-28T14:58:29.722Z,3.00
2018-06-28T15:00:57.571Z,3.97
2018-06-28T15:03:25.412Z,3.00
2018-06-28T15:05:53.248Z,3.13
2018-06-28T15:08:21.100Z,5.63
2018-06-28T15:10:49.133Z,5.67
2018-06-28T15:13:17.010Z,3.77
2018-06-28T15:15:44.812Z,3.97
2018-06-28T15:18:12.615Z,3.87
2018-06-28T15:20:40.539Z,2.90
2018-06-28T15:23:08.528Z,3.50
2018-06-28T15:25:36.365Z,2.73
2018-06-28T15:28:04.454Z,3.40
2018-06-28T15:30:32.309Z,3.53
2018-06-28T15:33:00.306Z,2.90
2018-06-28T15:35:28.111Z,2.47
2018-06-28T15:37:56.034Z,2.70
2018-06-28T15:40:23.871Z,2.77
2018-06-28T15:42:51.820Z,2.53
2018-06-28T15:45:19.800Z,2.33
2018-06-28T15:47:47.756Z,2.70
2018-06-28T15:50:15.580Z,2.53
2018-06-28T15:52:43.521Z,2.57
2018-06-28T15:55:11.284Z,2.43
2018-06-28T15:57:39.205Z,3.20
2018-06-28T16:00:07.312Z,3.23
2018-06-28T16:02:35.166Z,3.00
2018-06-28T16:05:03.165Z,2.33
2018-06-28T16:07:31.003Z,2.50
2018-06-28T16:09:58.977Z,2.50
2018-06-28T16:12:26.859Z,2.30
2018-06-28T16:14:55.104Z,2.50
2018-06-28T16:17:23.059Z,2.80
2018-06-28T16:19:50.895Z,2.50
2018-06-28T16:22:18.776Z,3.00
2018-06-28T16:24:47.159Z,2.63
2018-06-28T16:27:15.095Z,2.50
2018-06-28T16:29:42.919Z,2.50
2018-06-28T16:32:10.746Z,2.20
2018-06-28T16:34:38.648Z,2.33
2018-06-28T16:37:06.480Z,2.43
2018-06-28T16:39:34.371Z,2.60
2018-06-28T16:42:02.164Z,2.20
2018-06-28T16:44:30.024Z,2.37
2018-06-28T16:46:57.885Z,2.23
2018-06-28T16:49:25.789Z,2.80
2018-06-28T16:51:53.665Z,3.30
2018-06-28T16:54:21.492Z,2.87
2018-06-28T16:56:49.376Z,2.07
2018-06-28T16:59:17.288Z,2.20
2018-06-28T17:01:45.236Z,2.57
2018-06-28T17:04:13.100Z,2.10
2018-06-28T17:06:40.879Z,2.10
2018-06-28T17:09:09.458Z,2.17
2018-06-28T17:11:37.325Z,2.27
2018-06-28T17:14:05.583Z,2.40
2018-06-28T17:16:34.761Z,2.60
2018-06-28T17:19:02.630Z,2.57
2018-06-28T17:21:30.565Z,2.33
2018-06-28T17:24:00.489Z,2.10
2018-06-28T17:26:30.417Z,2.60
2018-06-28T17:28:58.352Z,2.23
2018-06-28T17:31:26.145Z,2.47
2018-06-28T17:33:54.267Z,2.30
2018-06-28T17:36:22.205Z,3.80
2018-06-28T17:38:59.756Z,3.10
2018-06-28T17:41:28.049Z,2.53
2018-06-28T17:43:55.986Z,8.77
2018-06-28T17:46:23.982Z,3.80
2018-06-28T17:48:51.956Z,2.30
2018-06-28T17:51:19.942Z,2.80
2018-06-28T17:53:48.161Z,2.50
2018-06-28T17:56:16.095Z,2.60
2018-06-28T17:58:43.913Z,3.97
2018-06-28T18:01:11.749Z,3.30
2018-06-28T18:03:39.660Z,3.23
2018-06-28T18:06:07.826Z,3.50
2018-06-28T18:08:35.764Z,3.80
2018-06-28T18:11:04.081Z,3.20
2018-06-28T18:13:32.168Z,4.20
2018-06-28T18:16:00.163Z,3.90
2018-06-28T18:18:28.031Z,4.30
2018-06-28T18:20:55.954Z,4.10
2018-06-28T18:23:24.794Z,4.03
2018-06-28T18:25:52.871Z,3.67
2018-06-28T18:28:20.836Z,4.20
2018-06-28T18:30:48.904Z,3.77
2018-06-28T18:33:16.827Z,3.93
2018-06-28T18:35:44.869Z,4.00
2018-06-28T18:38:12.886Z,4.60
2018-06-28T18:40:40.739Z,4.37
2018-06-28T18:43:08.667Z,4.57
2018-06-28T18:45:36.611Z,4.00
2018-06-28T18:48:05.775Z,4.13
2018-06-28T18:50:33.913Z,4.10
2018-06-28T18:53:01.895Z,3.70
2018-06-28T18:55:29.900Z,3.93
2018-06-28T18:57:57.968Z,4.03
2018-06-28T19:00:25.894Z,4.13
2018-06-28T19:02:53.958Z,4.53
2018-06-28T19:05:22.021Z,3.53
2018-06-28T19:07:50.688Z,3.80
2018-06-28T19:10:24.164Z,4.00
2018-06-28T19:12:52.056Z,3.90
2018-06-28T19:15:25.585Z,3.87
2018-06-28T19:17:53.465Z,3.40
2018-06-28T19:20:21.312Z,3.80
2018-06-28T19:22:54.740Z,3.63
2018-06-28T19:25:22.569Z,4.37
2018-06-28T19:27:50.389Z,3.67
2018-06-28T19:30:23.713Z,3.80
2018-06-28T19:32:51.654Z,3.70
2018-06-28T19:35:19.546Z,3.50
2018-06-28T19:37:48.801Z,3.90
2018-06-28T19:40:22.423Z,3.90
2018-06-28T19:42:55.809Z,3.70
2018-06-28T19:45:23.745Z,4.00
2018-06-28T19:47:51.844Z,3.93
2018-06-28T19:50:25.324Z,4.47
2018-06-28T19:52:55.770Z,4.27
2018-06-28T19:55:23.584Z,3.70
2018-06-28T19:57:51.835Z,4.07
2018-06-28T20:00:25.492Z,4.00
2018-06-28T20:02:58.807Z,4.20
2018-06-28T20:05:26.676Z,4.33
2018-06-28T20:07:54.560Z,4.33
2018-06-28T20:10:23.615Z,4.20
2018-06-28T20:12:57.652Z,4.67
2018-06-28T20:16:06.473Z,4.23
2018-06-28T20:18:39.925Z,4.83
2018-06-28T20:21:07.968Z,4.40
2018-06-28T20:23:35.889Z,4.40
2018-06-28T20:26:09.357Z,5.13
2018-06-28T20:30:43.620Z,3.57
2018-06-28T20:33:17.109Z,4.77
2018-06-28T20:35:44.928Z,4.10
2018-06-28T20:38:12.788Z,4.20
2018-06-28T20:40:40.589Z,4.03
2018-06-28T20:43:08.448Z,4.23
2018-06-28T20:45:36.405Z,3.87
2018-06-28T20:48:04.459Z,4.10
2018-06-28T20:50:32.311Z,4.37
2018-06-28T20:53:00.310Z,4.00
2018-06-28T20:55:28.119Z,4.10
2018-06-28T20:57:55.942Z,3.70
2018-06-28T21:00:23.809Z,4.17
2018-06-28T21:02:51.727Z,3.80
2018-06-28T21:05:19.612Z,4.43
2018-06-28T21:07:47.528Z,3.80
2018-06-28T21:10:15.363Z,3.97
2018-06-28T21:12:43.128Z,4.27
2018-06-28T21:15:11.782Z,4.20
2018-06-28T21:17:39.592Z,4.20
2018-06-28T21:20:07.373Z,4.00
2018-06-28T21:22:35.179Z,3.93
2018-06-28T21:25:03.029Z,4.20
2018-06-28T21:27:30.931Z,4.03
2018-06-28T21:29:58.802Z,4.20
2018-06-28T21:32:26.661Z,4.57
2018-06-28T21:34:54.589Z,4.00
2018-06-28T21:37:22.290Z,4.40
2018-06-28T21:39:50.993Z,4.60
2018-06-28T21:42:18.955Z,4.03
2018-06-28T21:44:46.752Z,4.17
2018-06-28T21:47:14.592Z,4.33
2018-06-28T21:49:42.433Z,4.77
2018-06-28T21:52:10.309Z,4.07
2018-06-28T21:54:38.117Z,5.50
2018-06-28T21:57:06.047Z,5.20
2018-06-28T21:59:33.796Z,5.07
2018-06-28T22:02:01.872Z,5.43
2018-06-28T22:04:29.648Z,4.40
2018-06-28T22:06:57.510Z,5.97
2018-06-28T22:09:25.316Z,5.37
2018-06-28T22:11:53.205Z,4.80
2018-06-28T22:14:21.145Z,5.57
2018-06-28T22:16:48.826Z,5.70
2018-06-28T22:19:16.617Z,5.60
2018-06-28T22:21:44.413Z,5.50
2018-06-28T22:24:12.360Z,4.87
2018-06-28T22:26:40.173Z,4.83
2018-06-28T22:29:07.968Z,4.97
2018-06-28T22:31:35.792Z,5.50
2018-06-28T22:34:03.700Z,5.03
2018-06-28T22:36:31.473Z,5.60
2018-06-28T22:38:59.348Z,5.17
2018-06-28T22:41:27.218Z,4.77
2018-06-28T22:43:55.002Z,5.23
2018-06-28T22:46:22.811Z,4.90
2018-06-28T22:48:50.696Z,4.10
2018-06-28T22:51:18.561Z,5.13
2018-06-28T22:53:46.400Z,4.50
2018-06-28T22:56:14.233Z,4.50
2018-06-28T22:58:42.084Z,4.70
2018-06-28T23:01:09.840Z,4.30
2018-06-28T23:03:37.749Z,5.57
2018-06-28T23:06:05.616Z,5.80
2018-06-28T23:08:33.461Z,4.70
2018-06-28T23:11:01.466Z,5.60
2018-06-28T23:13:29.272Z,4.70
2018-06-28T23:15:57.125Z,4.47
2018-06-28T23:18:25.054Z,4.43
2018-06-28T23:20:52.912Z,5.30
2018-06-28T23:23:21.002Z,4.20
2018-06-28T23:25:48.701Z,5.67
2018-06-28T23:28:16.617Z,5.50
2018-06-28T23:30:44.304Z,5.70
2018-06-28T23:33:12.232Z,5.80
2018-06-28T23:35:40.145Z,5.80
2018-06-28T23:38:08.042Z,5.90
2018-06-28T23:40:35.959Z,5.80
2018-06-28T23:43:03.812Z,5.27
2018-06-28T23:45:31.703Z,5.40
2018-06-28T23:47:59.423Z,5.17
2018-06-28T23:50:27.292Z,5.53
2018-06-28T23:52:55.238Z,5.53
2018-06-28T23:55:23.129Z,6.60
2018-06-28T23:57:50.906Z,5.90
